Latest Weather Observations for Coondewanna

IDW60801

Issued at 12:05 am WST Saturday 1 November 2014 (issued every 30 minutes, with the page automatically refreshed every 10 minutes)

About weather observations | Map of weather stations | Latest weather observations for WA | Other Formats
Station Details ID: 505051 Name: COONDEWANNA Lat: -22.96 Lon: 118.81 Height: 697.63 m
Data from the previous 72 hours. | See also: Recent months for locations in Western Australia
Date/Time
WST
Temp
°C
App
Temp
°C
Dew
Point
Rel
Hum
%
Delta-T
°C
Wind Press
QNH
hPa
Press
MSL
hPa
Rain
since 9 am
mm
Dir
 
Spd
km/h
Gust
km/h
Spd
kts
Gust
kts
01/12:00am 20.3 16.5 -4.0 19 10.3 S 7 9 4 5 1013.7 1008.9 0.0
 
Date/Time
WST
Temp
°C
App
Temp
°C
Dew
Point
Rel
Hum
%
Delta-T
°C
Wind Press
QNH
hPa
Press
MSL
hPa
Rain
since 9 am
mm
Dir
 
Spd
km/h
Gust
km/h
Spd
kts
Gust
kts
31/11:30pm 21.2 17.4 -4.0 18 10.8 S 7 7 4 4 1013.9 1009.1 0.0
31/11:00pm 23.4 18.8 -3.8 16 11.9 S 11 13 6 7 1014.1 1009.4 0.0
31/10:30pm 22.2 18.6 -4.0 17 11.3 SW 6 9 3 5 1014.2 1009.5 0.0
31/10:00pm 23.7 20.0 -4.4 15 12.2 SW 6 6 3 3 1014.3 1009.6 0.0
31/09:30pm 23.7 21.2 -4.4 15 12.2 CALM 0 7 0 4 1014.3 1009.6 0.0
31/09:00pm 25.0 21.7 -4.3 14 12.9 SW 4 6 2 3 1014.2 1009.5 0.0
31/08:30pm 25.8 21.9 -4.7 13 13.4 SW 7 9 4 5 1014.0 1009.2 0.0
31/08:00pm 27.9 23.6 -5.2 11 14.7 WSW 9 11 5 6 1013.9 1009.1 0.0
31/07:30pm 29.4 24.7 -5.4 10 15.6 WSW 11 13 6 7 1013.8 1009.0 0.0
31/07:00pm 30.8 24.9 -5.7 9 16.5 WSW 17 20 9 11 1013.2 1008.5 0.0
31/06:30pm 31.9 25.5 -4.9 9 16.9 WSW 20 30 11 16 1012.7 1008.0 0.0
31/06:00pm 33.0 25.2 -4.0 9 17.5 WSW 28 37 15 20 1012.3 1007.5 0.0
31/05:30pm 34.1 27.1 -3.2 9 17.9 WSW 24 33 13 18 1011.9 1007.2 0.0
31/05:00pm 34.6 26.9 -2.9 9 18.2 W 28 43 15 23 1011.5 1006.8 0.0
31/04:30pm 34.7 26.6 -2.8 9 18.2 W 30 44 16 24 1011.4 1006.7 0.0
31/04:00pm 34.9 26.5 -2.6 9 18.3 W 32 52 17 28 1011.4 1006.7 0.0
31/03:38pm 35.4 26.1 -2.3 9 18.6 W 37 56 20 30 1011.2 1006.4 0.0
31/03:30pm 35.3 26.7 -2.3 9 18.5 W 33 48 18 26 1011.3 1006.5 0.0
31/03:08pm 35.7 26.2 -3.6 8 19.0 WSW 37 61 20 33 1011.2 1006.4 0.0
31/03:00pm 36.0 27.5 -3.4 8 19.2 W 32 46 17 25 1011.2 1006.4 0.0
31/02:34pm 35.1 26.7 -2.5 9 18.4 W 32 50 17 27 1011.2 1006.4 0.0
31/02:30pm 36.0 27.3 -3.4 8 19.1 W 33 48 18 26 1011.3 1006.5 0.0
31/02:18pm 35.7 26.6 -3.6 8 19.0 W 35 43 19 23 1011.3 1006.5 0.0
31/02:15pm 35.4 24.8 -3.8 8 18.8 SW 43 50 23 27 1011.1 1006.3 0.0
31/02:05pm 35.3 26.4 -2.3 9 18.5 W 35 54 19 29 1011.6 1006.9 0.0
31/02:00pm 35.9 26.0 -3.5 8 19.1 WSW 39 52 21 28 1011.5 1006.8 0.0
31/01:57pm 35.5 25.0 -2.2 9 18.6 WSW 43 50 23 27 1011.5 1006.8 0.0
31/01:30pm 35.7 26.6 -3.6 8 19.0 W 35 56 19 30 1011.8 1007.1 0.0
31/01:00pm 35.9 27.6 -1.9 9 18.8 W 32 56 17 30 1011.9 1007.2 0.0
31/12:54pm 36.1 27.6 -1.7 9 18.9 W 33 56 18 30 1012.2 1007.4 0.0
31/12:30pm 35.3 27.1 -0.9 10 18.2 W 32 43 17 23 1012.5 1007.7 0.0
31/12:15pm 35.4 28.0 -0.8 10 18.3 W 28 48 15 26 1012.4 1007.6 0.0
31/12:00pm 34.8 26.7 0.0 11 17.7 W 32 46 17 25 1012.9 1008.2 0.0
31/11:51am 34.3 26.2 -0.4 11 17.5 W 32 39 17 21 1013.0 1008.3 0.0
31/11:30am 34.7 24.7 -1.4 10 18.0 WSW 41 59 22 32 1013.1 1008.4 0.0
31/11:00am 34.2 26.3 -1.7 10 17.7 W 30 48 16 26 1013.3 1008.6 0.0
31/10:38am 33.6 26.0 -2.2 10 17.5 SW 28 54 15 29 1013.7 1008.9 0.0
31/10:30am 33.4 26.0 -1.0 11 17.1 SW 28 43 15 23 1013.9 1009.1 0.0
31/10:00am 32.2 24.8 -0.8 12 16.3 WSW 28 41 15 22 1014.2 1009.5 0.0
31/09:30am 31.1 24.4 1.4 15 15.1 WSW 26 32 14 17 1014.6 1009.9 0.0
31/09:00am 29.6 23.8 4.3 20 13.4 SW 24 30 13 16 1014.8 1010.1 0.0
31/08:30am 28.7 24.3 4.9 22 12.7 SW 17 28 9 15 1014.9 1010.2 0.0
31/08:00am 27.1 23.2 5.4 25 11.5 SW 15 20 8 11 1014.9 1010.2 0.0
31/07:30am 26.1 21.4 5.1 26 11.1 SW 19 26 10 14 1014.9 1010.2 0.0
31/07:00am 25.5 20.1 4.6 26 10.9 WSW 22 30 12 16 1014.8 1010.1 0.0
31/06:30am 25.0 19.9 4.2 26 10.7 WSW 20 26 11 14 1014.5 1009.8 0.0
31/06:00am 24.2 19.7 4.0 27 10.3 WSW 17 20 9 11 1014.4 1009.7 0.0
31/05:30am 23.8 19.6 3.7 27 10.2 WSW 15 17 8 9 1014.2 1009.5 0.0
31/05:00am 24.5 20.3 3.8 26 10.5 WSW 15 17 8 9 1013.9 1009.1 0.0
31/04:30am 25.2 20.1 3.2 24 11.1 WSW 19 22 10 12 1013.4 1008.7 0.0
31/04:00am 25.3 20.6 3.3 24 11.2 WSW 17 20 9 11 1013.1 1008.4 0.0
31/03:30am 25.2 21.3 3.2 24 11.1 WSW 13 15 7 8 1012.9 1008.2 0.0
31/03:00am 25.9 21.6 3.2 23 11.5 WSW 15 19 8 10 1012.7 1008.0 0.0
31/02:30am 26.5 22.5 3.1 22 11.9 WSW 13 20 7 11 1012.9 1008.2 0.0
31/02:00am 26.9 23.6 2.7 21 12.3 WSW 9 13 5 7 1013.0 1008.3 0.0
31/01:30am 27.2 23.6 3.0 21 12.4 W 11 13 6 7 1013.2 1008.5 0.0
31/01:00am 27.3 23.7 3.1 21 12.4 W 11 15 6 8 1013.4 1008.7 0.0
31/12:30am 27.6 23.7 3.3 21 12.5 W 13 17 7 9 1013.8 1009.0 0.0
31/12:00am 27.0 23.8 2.8 21 12.3 W 9 11 5 6 1014.0 1009.2 0.0
 
Date/Time
WST
Temp
°C
App
Temp
°C
Dew
Point
Rel
Hum
%
Delta-T
°C
Wind Press
QNH
hPa
Press
MSL
hPa
Rain
since 9 am
mm
Dir
 
Spd
km/h
Gust
km/h
Spd
kts
Gust
kts
30/11:30pm 27.5 24.2 2.6 20 12.7 W 9 11 5 6 1014.3 1009.6 0.0
30/11:00pm 28.3 24.6 2.5 19 13.2 W 11 15 6 8 1014.3 1009.6 0.0
30/10:30pm 29.3 24.5 2.5 18 13.7 WSW 17 20 9 11 1014.3 1009.6 0.0
30/10:00pm 28.5 24.7 1.9 18 13.4 WSW 11 13 6 7 1014.3 1009.6 0.0
30/09:30pm 30.5 25.2 1.9 16 14.6 WSW 19 30 10 16 1014.0 1009.2 0.0
30/09:00pm 29.4 26.1 2.6 18 13.8 WSW 9 15 5 8 1013.8 1009.0 0.0
30/08:30pm 30.2 26.5 2.5 17 14.3 W 11 13 6 7 1013.5 1008.8 0.0
30/08:00pm 30.5 26.9 2.7 17 14.4 WSW 11 15 6 8 1013.5 1008.8 0.0
30/07:30pm 31.7 27.7 2.8 16 15.1 WSW 13 17 7 9 1013.3 1008.6 0.0
30/07:00pm 32.8 28.0 2.8 15 15.8 WSW 17 20 9 11 1013.0 1008.3 0.0
30/06:30pm 33.4 28.2 2.3 14 16.3 W 19 28 10 15 1012.6 1007.8 0.0
30/06:00pm 34.3 29.4 1.9 13 17.0 WSW 17 22 9 12 1012.3 1007.5 0.0
30/05:30pm 34.8 27.5 2.3 13 17.2 WSW 30 39 16 21 1012.1 1007.3 0.0
30/05:00pm 35.6 28.6 1.8 12 17.8 W 28 37 15 20 1011.8 1007.1 0.0
30/04:30pm 36.1 29.9 2.2 12 18.0 W 24 39 13 21 1011.7 1007.0 0.0
30/04:00pm 36.8 31.8 1.5 11 18.6 W 17 30 9 16 1011.7 1007.0 0.0
30/03:30pm 36.5 30.2 1.3 11 18.5 W 24 35 13 19 1011.9 1007.2 0.0
30/03:00pm 36.1 29.3 1.0 11 18.3 SW 26 35 14 19 1012.2 1007.4 0.0
30/02:30pm 36.2 31.5 1.1 11 18.3 W 15 37 8 20 1012.5 1007.7 0.0
30/02:00pm 36.1 30.7 1.0 11 18.3 WSW 19 35 10 19 1012.6 1007.8 0.0
30/01:30pm 36.2 28.7 1.1 11 18.3 W 30 41 16 22 1013.0 1008.3 0.0
30/01:00pm 34.4 28.5 2.0 13 17.0 WSW 22 39 12 21 1013.4 1008.7 0.0
30/12:30pm 35.6 30.7 1.8 12 17.8 WNW 17 20 9 11 1013.8 1009.0 0.0
30/12:00pm 36.0 29.8 2.1 12 18.0 W 24 30 13 16 1014.2 1009.5 0.0
30/11:46am 35.5 28.5 1.8 12 17.7 W 28 48 15 26 1014.3 1009.6 0.0
30/11:30am 34.8 28.4 1.2 12 17.4 W 24 43 13 23 1014.4 1009.7 0.0
30/11:00am 34.5 28.9 1.0 12 17.3 SSW 20 28 11 15 1014.6 1009.9 0.0
30/10:30am 34.0 28.7 1.7 13 16.8 SW 19 26 10 14 1015.2 1010.4 0.0
30/10:00am 33.1 27.7 1.0 13 16.4 SW 19 28 10 15 1015.5 1010.8 0.0
30/09:30am 32.1 26.7 2.2 15 15.5 SSW 20 26 11 14 1015.9 1011.2 0.0
30/09:00am 31.0 27.4 3.1 17 14.6 S 11 20 6 11 1016.1 1011.4 0.0
30/08:30am 30.0 26.0 3.1 18 14.0 S 13 20 7 11 1016.3 1011.6 0.0
30/08:00am 29.0 25.2 3.8 20 13.2 SSW 13 20 7 11 1016.3 1011.6 0.0
30/07:30am 28.0 24.5 3.7 21 12.6 SW 11 17 6 9 1016.1 1011.4 0.0
30/07:00am 26.4 22.7 4.2 24 11.5 SW 13 19 7 10 1015.9 1011.2 0.0
30/06:30am 24.4 21.4 4.2 27 10.4 SSW 9 15 5 8 1015.8 1011.1 0.0
30/06:00am 22.6 19.9 3.7 29 9.5 SSE 7 9 4 5 1015.6 1010.9 0.0
30/05:30am 21.8 19.3 3.5 30 9.1 SSE 6 9 3 5 1015.4 1010.7 0.0
30/05:00am 22.0 18.4 3.2 29 9.3 SSW 11 13 6 7 1015.0 1010.3 0.0
30/04:30am 23.0 19.4 3.0 27 9.9 SW 11 13 6 7 1014.9 1010.2 0.0
30/04:00am 23.2 19.3 3.2 27 10.0 SW 13 15 7 8 1014.8 1010.1 0.0
30/03:30am 22.5 19.2 2.6 27 9.8 WSW 9 13 5 7 1014.7 1010.0 0.0
30/03:00am 23.0 21.3 1.9 25 10.3 CALM 0 0 0 0 1014.6 1009.9 0.0
30/02:30am 24.4 21.7 2.5 24 10.9 WSW 6 7 3 4 1014.5 1009.8 0.0
30/02:00am 25.6 22.0 2.9 23 11.5 WSW 11 15 6 8 1014.5 1009.8 0.0
30/01:30am 26.5 22.4 2.4 21 12.1 W 13 17 7 9 1014.6 1009.9 0.0
30/01:00am 26.9 22.9 2.7 21 12.3 WSW 13 15 7 8 1014.8 1010.1 0.0
30/12:30am 27.7 23.6 2.0 19 12.9 WSW 13 17 7 9 1014.9 1010.2 0.0
30/12:00am 28.1 24.0 2.3 19 13.1 WSW 13 20 7 11 1015.0 1010.3 0.0
 
Date/Time
WST
Temp
°C
App
Temp
°C
Dew
Point
Rel
Hum
%
Delta-T
°C
Wind Press
QNH
hPa
Press
MSL
hPa
Rain
since 9 am
mm
Dir
 
Spd
km/h
Gust
km/h
Spd
kts
Gust
kts
29/11:30pm 29.2 25.5 2.5 18 13.7 W 11 15 6 8 1015.2 1010.4 0.0
29/11:00pm 30.3 25.4 1.7 16 14.6 W 17 24 9 13 1015.2 1010.4 0.0
29/10:30pm 30.7 26.9 2.0 16 14.7 W 11 17 6 9 1015.2 1010.4 0.0
29/10:00pm 31.8 26.5 2.0 15 15.4 W 19 30 10 16 1015.2 1010.4 0.0
29/09:30pm 32.3 25.6 1.4 14 15.8 W 26 37 14 20 1014.8 1010.1 0.0
29/09:00pm 33.1 26.1 2.0 14 16.2 W 28 37 15 20 1014.6 1009.9 0.0
29/08:52pm 32.8 25.8 1.8 14 16.1 WSW 28 35 15 19 1014.6 1009.9 0.0
29/08:30pm 31.6 28.8 1.8 15 15.3 WSW 6 7 3 4 1014.4 1009.7 0.0
29/08:00pm 32.9 29.3 0.9 13 16.3 WSW 9 11 5 6 1014.2 1009.5 0.0
29/07:30pm 33.6 30.7 1.4 13 16.6 WSW 6 7 3 4 1014.1 1009.4 0.0
29/07:00pm 34.3 30.0 0.8 12 17.2 W 13 24 7 13 1013.8 1009.0 0.0
29/06:30pm 34.8 30.1 1.2 12 17.4 SW 15 20 8 11 1013.2 1008.5 0.0
29/06:00pm 35.3 30.9 0.4 11 17.9 WSW 13 17 7 9 1012.9 1008.2 0.0
29/05:30pm 35.6 30.5 0.6 11 18.1 W 17 26 9 14 1012.6 1007.8 0.0
29/05:00pm 36.2 30.0 -0.2 10 18.6 WSW 22 30 12 16 1012.4 1007.6 0.0
29/04:30pm 36.2 31.3 -0.2 10 18.6 W 15 28 8 15 1012.3 1007.5 0.0
29/04:00pm 36.9 31.4 0.3 10 19.0 WNW 19 30 10 16 1012.2 1007.4 0.0
29/03:30pm 36.8 31.6 0.2 10 18.9 WNW 17 28 9 15 1012.3 1007.5 0.0
29/03:00pm 37.0 31.3 0.4 10 19.0 NW 20 35 11 19 1012.4 1007.6 0.0
29/02:30pm 37.7 33.4 0.9 10 19.3 W 13 24 7 13 1012.5 1007.7 0.0
29/02:00pm 38.2 31.6 -0.2 9 19.9 NW 24 41 13 22 1012.8 1008.1 0.0
29/01:30pm 37.8 32.7 1.0 10 19.4 N 17 26 9 14 1013.2 1008.5 0.0
29/01:00pm 37.8 33.5 1.0 10 19.4 NW 13 30 7 16 1013.5 1008.8 0.0
29/12:30pm 37.4 31.0 0.7 10 19.2 W 24 35 13 19 1013.9 1009.1 0.0
29/12:00pm 37.0 32.4 1.7 11 18.7 SW 15 24 8 13 1014.2 1009.5 0.0
29/11:30am 37.4 31.9 2.0 11 18.9 NW 20 26 11 14 1014.5 1009.8 0.0
29/11:00am 35.6 31.6 3.0 13 17.5 S 13 26 7 14 1014.7 1010.0 0.0
29/10:30am 35.8 32.2 3.1 13 17.6 WNW 11 20 6 11 1015.2 1010.4 0.0
29/10:00am 33.8 30.8 6.2 18 15.4 W 11 22 6 12 1015.5 1010.8 0.0
29/09:30am 32.5 29.9 9.3 24 13.5 NNW 13 19 7 10 1015.7 1011.0 0.0
29/09:00am 30.8 27.9 9.6 27 12.3 N 15 22 8 12 1015.9 1011.2 0.0
29/08:30am 29.8 27.6 10.9 31 11.2 N 13 20 7 11 1015.9 1011.2 0.0
29/08:00am 29.0 26.5 11.1 33 10.6 N 15 22 8 12 1015.8 1011.1 0.0
29/07:30am 28.1 25.1 10.8 34 10.1 NNW 17 22 9 12 1015.6 1010.9 0.0
29/07:00am 25.6 25.4 14.7 51 6.7 N 9 11 5 6 1015.5 1010.8 0.0
29/06:30am 24.6 24.9 15.0 55 5.9 NE 7 9 4 5 1015.5 1010.8 0.0
29/06:00am 23.8 23.6 14.8 57 5.5 N 9 11 5 6 1015.3 1010.5 0.0
29/05:30am 24.1 23.8 14.5 55 5.9 N 9 11 5 6 1015.4 1010.7 0.0
29/05:00am 24.4 24.0 14.2 53 6.2 N 9 13 5 7 1015.4 1010.7 0.0
29/04:30am 23.9 23.3 13.4 51 6.3 NNW 9 11 5 6 1015.0 1010.3 0.0
29/04:00am 24.9 23.9 13.5 49 6.9 NNE 11 17 6 9 1015.0 1010.3 0.0
29/03:30am 25.1 23.7 13.3 48 7.1 NNE 13 17 7 9 1014.8 1010.1 0.0
29/03:00am 25.3 23.8 13.2 47 7.3 N 13 19 7 10 1014.8 1010.1 0.0
29/02:30am 25.9 24.5 13.4 46 7.6 NNE 13 20 7 11 1014.7 1010.0 0.0
29/02:00am 26.3 24.9 13.4 45 7.8 NNE 13 19 7 10 1014.8 1010.1 0.0
29/01:30am 26.5 24.8 12.5 41 8.4 NNE 13 20 7 11 1014.7 1010.0 0.0
29/01:00am 26.8 23.7 11.7 39 8.9 NE 19 28 10 15 1014.7 1010.0 0.0
29/12:30am 27.6 23.8 11.2 36 9.6 NE 22 33 12 18 1014.9 1010.2 0.0

Other Formats:

Comma delimited format used in spreadsheet applications
http://www.bom.gov.au/fwo/IDW60801/IDW60801.99312.axf

JavaScript Object Notation format (JSON) in row-major order
http://www.bom.gov.au/fwo/IDW60801/IDW60801.99312.json